Time;durP1;ratioP1;P1;durP2;ratioP2;P2;SDS_P1;SDS_P2;PMS_P1;PMS_P2;Temp;Humidity;BMP_temperature;BMP_pressure;BME280_temperature;BME280_humidity;BME280_pressure;Samples;Min_cycle;Max_cycle;Signal;HPM_P1;HPM_P2
2022/05/06 00:02:57;;;;;;;19.92;14.85;;;;;;;14.52;87.95;100801.72;2932563;79;21013;-90
2022/05/06 00:06:58;;;;;;;18.30;13.98;;;;;;;14.54;87.81;100803.28;2890050;80;21538;-91
2022/05/06 00:10:59;;;;;;;18.12;14.65;;;;;;;14.40;85.37;100796.98;2911263;79;20979;-91
2022/05/06 00:15:01;;;;;;;19.75;14.45;;;;;;;14.32;84.01;100800.34;2888652;80;21070;-90
2022/05/06 00:19:02;;;;;;;14.87;10.38;;;;;;;14.10;83.38;100800.93;2897668;80;20989;-90
2022/05/06 00:23:03;;;;;;;13.55;10.48;;;;;;;13.97;84.71;100807.03;2949432;80;21448;-91
2022/05/06 00:27:05;;;;;;;10.55;9.35;;;;;;;13.84;85.42;100804.09;2930100;79;21579;-92
2022/05/06 00:31:07;;;;;;;17.98;14.18;;;;;;;13.68;85.09;100803.73;2830697;80;21539;-91
2022/05/06 00:35:08;;;;;;;12.68;11.38;;;;;;;13.58;86.00;100809.53;2943681;80;20980;-89
2022/05/06 00:39:10;;;;;;;10.88;9.63;;;;;;;13.41;86.38;100807.78;2832277;80;21527;-90
2022/05/06 00:43:12;;;;;;;11.85;10.08;;;;;;;13.23;85.34;100813.72;2849287;80;21028;-90
2022/05/06 00:47:16;;;;;;;13.95;11.95;;;;;;;13.19;84.63;100815.44;2901985;80;21572;-91
2022/05/06 00:51:18;;;;;;;13.65;11.68;;;;;;;13.18;83.86;100814.61;2945630;79;22258;-92
2022/05/06 00:55:19;;;;;;;15.40;13.60;;;;;;;13.16;83.70;100830.39;2949082;80;21020;-90
2022/05/06 00:59:21;;;;;;;21.20;15.58;;;;;;;13.11;84.31;100829.44;2865045;80;21023;-91
2022/05/06 01:03:22;;;;;;;15.03;12.10;;;;;;;13.08;86.50;100831.03;2907670;80;22307;-91
2022/05/06 01:07:23;;;;;;;17.25;13.38;;;;;;;13.02;85.87;100827.55;2940206;80;21530;-91
2022/05/06 01:11:26;;;;;;;16.82;10.48;;;;;;;12.83;84.58;100829.09;2915325;79;21044;-91
2022/05/06 01:15:29;;;;;;;43.50;15.80;;;;;;;12.69;84.84;100828.90;2913225;80;21028;-90
2022/05/06 01:19:30;;;;;;;17.35;14.00;;;;;;;12.56;84.35;100826.36;2859780;81;21026;-90
2022/05/06 01:23:32;;;;;;;13.00;10.40;;;;;;;12.31;84.17;100824.36;2823097;82;21008;-90
2022/05/06 01:27:37;;;;;;;14.98;12.13;;;;;;;12.17;83.92;100824.62;2877168;81;21513;-91
2022/05/06 01:31:39;;;;;;;21.65;13.80;;;;;;;12.07;85.59;100830.70;2865589;79;21466;-90
2022/05/06 01:35:55;;;;;;;16.95;14.07;;;;;;;12.03;85.19;100831.92;2869396;81;21044;-90
2022/05/06 01:40:00;;;;;;;16.12;14.43;;;;;;;12.04;85.88;100834.09;2933203;80;21071;-89
2022/05/06 01:44:08;;;;;;;17.03;15.30;;;;;;;12.10;86.75;100838.95;2834990;81;21110;-91
2022/05/06 01:48:10;;;;;;;21.68;17.10;;;;;;;12.17;86.85;100837.95;2867883;81;21659;-89
2022/05/06 01:52:17;;;;;;;14.80;13.20;;;;;;;12.17;89.42;100842.81;2841400;81;21034;-91
2022/05/06 01:56:19;;;;;;;17.12;14.75;;;;;;;11.91;86.84;100841.71;2861823;81;21058;-91
2022/05/06 02:00:21;;;;;;;20.97;17.12;;;;;;;11.85;86.54;100843.51;2865321;81;21086;-91
2022/05/06 02:08:42;;;;;;;24.27;19.52;;;;;;;11.84;89.89;100856.47;2929071;81;21580;-91
2022/05/06 02:12:45;;;;;;;22.42;18.35;;;;;;;11.79;92.20;100851.52;2899401;81;21049;-89
2022/05/06 02:16:46;;;;;;;24.35;18.35;;;;;;;11.78;92.84;100852.47;2884204;81;21041;-90
2022/05/06 02:20:47;;;;;;;24.07;18.23;;;;;;;11.79;92.93;100849.33;2822196;81;21030;-91
2022/05/06 02:24:48;;;;;;;22.15;18.45;;;;;;;11.77;93.41;100852.10;2812710;82;21066;-90
2022/05/06 02:28:49;;;;;;;19.10;17.07;;;;;;;11.82;92.45;100858.41;2822158;82;21042;-88
2022/05/06 02:37:10;;;;;;;24.30;18.20;;;;;;;11.96;90.93;100851.99;2845174;82;21066;-88
2022/05/06 02:41:14;;;;;;;19.75;17.75;;;;;;;12.03;90.59;100852.39;2788824;83;21043;-88
2022/05/06 02:45:15;;;;;;;22.65;18.32;;;;;;;11.99;91.40;100845.11;2748684;84;32887;-90
2022/05/06 02:49:16;;;;;;;16.42;14.70;;;;;;;11.91;91.69;100851.05;2845951;82;21116;-90
2022/05/06 02:53:21;;;;;;;24.60;18.60;;;;;;;11.72;88.13;100854.28;2848745;82;21038;-88
2022/05/06 02:57:23;;;;;;;21.20;16.70;;;;;;;11.66;88.93;100850.77;2849620;82;21341;-89
2022/05/06 03:01:24;;;;;;;24.20;18.70;;;;;;;11.68;88.86;100849.67;2846601;82;21069;-94
2022/05/06 03:05:26;;;;;;;18.60;15.95;;;;;;;11.65;88.58;100855.73;2798270;82;20995;-92
2022/05/06 03:09:27;;;;;;;20.17;17.80;;;;;;;11.66;89.51;100853.44;2837732;83;21049;-91
2022/05/06 03:13:28;;;;;;;18.55;16.48;;;;;;;11.51;91.26;100856.31;2829468;82;21101;-92
2022/05/06 03:17:33;;;;;;;21.42;17.75;;;;;;;11.46;91.75;100863.81;2844969;80;21054;-92
2022/05/06 03:21:35;;;;;;;21.90;17.35;;;;;;;11.51;91.62;100869.62;2925916;79;20996;-90
2022/05/06 03:25:36;;;;;;;21.33;17.85;;;;;;;11.54;90.96;100872.06;2929479;80;21035;-90
2022/05/06 03:29:38;;;;;;;19.15;16.23;;;;;;;11.60;90.87;100879.23;2936235;79;21018;-90
2022/05/06 03:33:42;;;;;;;19.00;16.20;;;;;;;11.57;90.53;100887.80;2936851;80;21404;-91
2022/05/06 03:37:44;;;;;;;19.27;16.55;;;;;;;11.57;91.14;100890.47;2918485;80;21137;-91
2022/05/06 03:41:45;;;;;;;21.48;18.30;;;;;;;11.52;92.95;100889.15;2895835;80;21674;-90
2022/05/06 03:45:47;;;;;;;18.95;16.60;;;;;;;11.42;94.26;100900.98;2950230;80;21091;-91
2022/05/06 03:54:00;;;;;;;20.12;15.18;;;;;;;11.57;92.71;100908.28;2856292;80;21051;-90
2022/05/06 03:58:01;;;;;;;18.40;15.18;;;;;;;11.68;92.25;100913.62;2911072;80;21034;-90
2022/05/06 04:02:02;;;;;;;18.57;14.85;;;;;;;11.85;91.96;100912.34;2915346;79;21031;-90
2022/05/06 04:06:04;;;;;;;21.82;15.93;;;;;;;11.97;91.05;100910.54;2946829;80;21604;-90
2022/05/06 04:10:06;;;;;;;19.25;16.60;;;;;;;11.95;91.44;100915.61;2918982;80;21051;-91
2022/05/06 04:14:09;;;;;;;32.55;16.67;;;;;;;11.92;92.21;100915.39;2936197;79;21675;-90
2022/05/06 04:18:10;;;;;;;16.07;14.33;;;;;;;11.90;92.91;100934.66;2947954;79;21147;-90
2022/05/06 04:26:31;;;;;;;18.30;14.10;;;;;;;12.21;94.46;100943.45;2854885;79;21059;-93
2022/05/06 04:30:32;;;;;;;24.30;14.63;;;;;;;12.34;93.35;100952.16;2920299;79;21353;-89
2022/05/06 04:34:33;;;;;;;21.25;15.48;;;;;;;12.43;93.74;100951.92;2924536;79;21027;-88
2022/05/06 04:38:34;;;;;;;18.82;14.68;;;;;;;12.57;93.88;100957.48;2863219;80;21009;-89
2022/05/06 04:42:35;;;;;;;13.78;12.37;;;;;;;12.71;93.60;100959.08;2897634;80;21003;-87
2022/05/06 04:46:37;;;;;;;17.05;15.18;;;;;;;12.70;93.49;100955.55;2863998;80;21066;-88
2022/05/06 04:50:40;;;;;;;19.07;15.10;;;;;;;12.87;93.51;100966.69;2899712;80;21038;-89
2022/05/06 04:54:41;;;;;;;18.98;13.62;;;;;;;12.98;92.77;100969.34;2890111;79;21061;-89
2022/05/06 04:58:42;;;;;;;16.50;14.30;;;;;;;13.18;92.82;100974.02;2914636;80;21004;-88
2022/05/06 05:02:43;;;;;;;21.70;15.32;;;;;;;13.24;92.84;100976.17;2928397;79;20993;-89
2022/05/06 05:06:45;;;;;;;17.77;16.00;;;;;;;13.27;93.52;100977.28;2930023;80;21013;-89
2022/05/06 05:10:46;;;;;;;17.40;14.15;;;;;;;13.35;93.54;100975.28;2880510;79;21003;-89
2022/05/06 05:14:47;;;;;;;16.97;13.95;;;;;;;13.44;93.13;100979.92;2901430;80;21178;-89
2022/05/06 05:18:48;;;;;;;16.67;14.87;;;;;;;13.52;93.30;100988.12;2881888;80;21047;-88
2022/05/06 05:22:49;;;;;;;17.42;14.78;;;;;;;13.63;93.23;100993.91;2874764;79;21026;-89
2022/05/06 05:26:50;;;;;;;18.95;14.83;;;;;;;13.71;92.61;100995.95;2800312;82;21062;-89
2022/05/06 05:30:51;;;;;;;20.23;14.30;;;;;;;13.75;92.12;101008.08;2833535;80;21059;-89
2022/05/06 05:34:53;;;;;;;20.88;14.03;;;;;;;13.83;91.68;100990.91;2895900;80;21047;-89
2022/05/06 05:38:54;;;;;;;21.82;13.90;;;;;;;13.88;91.22;100996.35;2813953;82;21086;-88
2022/05/06 05:42:55;;;;;;;19.70;14.87;;;;;;;14.07;90.85;100999.16;2767245;82;21019;-89
2022/05/06 05:51:15;;;;;;;16.10;14.20;;;;;;;14.41;88.35;100982.87;2925628;79;21045;-88
2022/05/06 05:55:18;;;;;;;21.42;16.82;;;;;;;14.80;88.74;100990.73;2930229;80;21005;-89
2022/05/06 05:59:19;;;;;;;19.37;13.28;;;;;;;15.25;86.52;100993.44;2925041;80;21079;-90
2022/05/06 06:03:20;;;;;;;15.75;13.95;;;;;;;15.83;85.15;100995.27;2884888;79;21041;-88
2022/05/06 06:07:21;;;;;;;18.87;14.98;;;;;;;16.44;80.93;100996.84;2886721;80;21007;-89
2022/05/06 06:11:22;;;;;;;15.90;11.28;;;;;;;16.91;79.59;101002.64;2898857;79;21068;-89
2022/05/06 06:15:24;;;;;;;11.88;9.80;;;;;;;17.23;76.54;101012.11;2909438;79;21047;-89
2022/05/06 06:19:25;;;;;;;12.45;10.48;;;;;;;17.38;72.01;101008.39;2908580;79;21496;-88
2022/05/06 06:23:31;;;;;;;18.62;11.15;;;;;;;17.51;72.37;101012.03;2887836;82;20996;-89
2022/05/06 06:27:32;;;;;;;;;;;;;;;17.59;69.96;101013.95;2850745;82;21002;-89
2022/05/06 06:31:33;;;;;;;13.65;10.48;;;;;;;17.72;70.16;101017.59;2818370;82;20109;-89
2022/05/06 06:35:34;;;;;;;11.83;9.78;;;;;;;17.93;69.37;101017.28;2792934;83;21015;-89
2022/05/06 06:39:36;;;;;;;9.85;8.13;;;;;;;17.94;69.41;101022.48;2899349;80;21500;-89
2022/05/06 06:43:37;;;;;;;11.53;8.80;;;;;;;17.99;65.65;101019.33;2942111;79;21516;-89
2022/05/06 06:47:39;;;;;;;13.85;10.45;;;;;;;18.05;64.70;101031.36;2807342;80;21038;-89
2022/05/06 06:51:40;;;;;;;14.40;10.40;;;;;;;18.08;64.07;101035.94;2873164;81;21047;-90
2022/05/06 06:55:41;;;;;;;10.18;8.38;;;;;;;18.04;63.78;101035.88;2769847;81;21039;-89
2022/05/06 06:59:42;;;;;;;11.05;8.65;;;;;;;17.98;64.12;101029.76;2831869;80;20995;-89
2022/05/06 07:03:43;;;;;;;13.00;8.95;;;;;;;17.94;64.85;101051.27;2806411;83;21023;-89
2022/05/06 07:12:05;;;;;;;13.98;9.73;;;;;;;17.83;63.91;101042.94;2810073;80;20987;-89
2022/05/06 07:16:06;;;;;;;11.75;8.03;;;;;;;17.92;65.33;101041.98;2755798;83;21650;-89
2022/05/06 07:20:08;;;;;;;9.30;8.10;;;;;;;18.00;63.56;101037.17;2862512;79;21547;-89
2022/05/06 07:24:10;;;;;;;17.07;8.60;;;;;;;18.08;63.89;101046.70;2846494;81;21071;-89
2022/05/06 07:28:11;;;;;;;11.22;6.72;;;;;;;18.11;63.74;101049.56;2846382;79;21070;-89
2022/05/06 07:32:12;;;;;;;12.53;7.90;;;;;;;18.18;63.83;101044.41;2887347;79;21004;-89
2022/05/06 07:36:14;;;;;;;9.25;8.28;;;;;;;18.22;61.18;101051.16;2854538;81;21057;-89
2022/05/06 07:40:15;;;;;;;9.18;7.05;;;;;;;18.24;61.68;101055.88;2926739;79;21034;-89
2022/05/06 07:44:16;;;;;;;10.93;7.33;;;;;;;18.26;62.61;101059.26;2899234;79;21082;-88
2022/05/06 07:48:19;;;;;;;9.28;8.43;;;;;;;18.35;62.83;101058.81;2874457;79;21099;-89
2022/05/06 07:52:20;;;;;;;7.95;6.65;;;;;;;18.46;62.36;101057.70;2874606;79;21010;-88
2022/05/06 07:56:23;;;;;;;9.70;6.75;;;;;;;18.55;62.81;101052.20;2790281;81;21058;-89
2022/05/06 08:00:24;;;;;;;9.50;8.05;;;;;;;18.81;61.92;101051.83;2842677;79;22120;-89
2022/05/06 08:04:35;;;;;;;13.30;7.40;;;;;;;19.10;61.39;101044.73;2846650;81;21059;-89
2022/05/06 08:08:36;;;;;;;8.40;6.55;;;;;;;19.37;62.62;101044.64;2873689;79;21062;-89
2022/05/06 08:12:37;;;;;;;12.58;7.03;;;;;;;19.45;59.87;101041.94;2846467;79;21020;-89
2022/05/06 08:16:38;;;;;;;11.53;7.55;;;;;;;19.52;60.02;101044.34;2883794;79;21010;-89
2022/05/06 08:20:41;;;;;;;13.93;7.22;;;;;;;19.53;60.52;101039.77;2862944;79;21003;-89
2022/05/06 08:24:43;;;;;;;12.75;6.40;;;;;;;19.37;59.55;101037.89;2858259;79;20943;-89
2022/05/06 08:28:44;;;;;;;7.30;5.30;;;;;;;19.71;61.68;101036.94;2887407;79;21019;-89
2022/05/06 08:32:45;;;;;;;11.10;7.05;;;;;;;20.04;58.01;101038.81;2896514;81;20995;-89
2022/05/06 08:36:47;;;;;;;15.75;7.30;;;;;;;20.27;58.68;101049.77;2840848;81;20985;-87
2022/05/06 08:40:50;;;;;;;9.03;5.22;;;;;;;20.40;59.77;101053.28;2859647;79;23052;-88
2022/05/06 08:53:34;;;;;;;10.65;6.12;;;;;;;20.30;60.29;101059.37;2830585;82;21025;-89
2022/05/06 08:57:36;;;;;;;11.63;7.22;;;;;;;20.30;59.85;101062.06;2803866;82;21692;-88
2022/05/06 09:01:37;;;;;;;5.40;4.70;;;;;;;20.36;60.63;101064.11;2805653;82;21576;-89
2022/05/06 09:06:01;;;;;;;13.08;5.05;;;;;;;20.55;58.40;101057.47;2758607;82;21481;-89
2022/05/06 09:10:14;;;;;;;6.80;4.95;;;;;;;20.77;56.73;101045.56;2802830;83;21063;-89
2022/05/06 09:14:20;;;;;;;10.32;6.65;;;;;;;20.78;57.48;101041.84;2794932;83;21069;-88
2022/05/06 09:18:23;;;;;;;9.55;5.65;;;;;;;20.81;58.71;101041.03;2806331;82;20998;-89
2022/05/06 09:22:29;;;;;;;5.75;4.67;;;;;;;20.89;57.53;101045.56;2778065;82;21046;-89
2022/05/06 09:26:30;;;;;;;;;;;;;;;20.90;55.36;101047.24;2767588;83;21063;-89
2022/05/06 09:30:33;;;;;;;7.87;3.92;;;;;;;21.01;56.16;101028.44;2772476;84;20889;-89
2022/05/06 09:34:36;;;;;;;6.50;3.25;;;;;;;21.31;54.17;101037.23;2770078;83;21546;-89
2022/05/06 09:38:37;;;;;;;7.10;3.52;;;;;;;21.36;52.26;101030.77;2789370;84;21031;-90
2022/05/06 09:42:46;;;;;;;6.30;4.25;;;;;;;21.34;52.41;101025.55;2777675;83;21086;-89
2022/05/06 09:46:47;;;;;;;8.20;3.95;;;;;;;21.25;52.02;101030.66;2827549;81;21063;-89
2022/05/06 09:50:48;;;;;;;14.87;5.15;;;;;;;20.95;51.62;101029.98;2851528;82;21003;-89
2022/05/06 09:54:50;;;;;;;8.00;3.67;;;;;;;20.92;54.10;101028.98;2837531;82;21121;-90
2022/05/06 09:58:52;;;;;;;8.20;3.12;;;;;;;20.85;55.20;101033.42;2846404;81;21169;-88
2022/05/06 10:02:56;;;;;;;6.25;3.30;;;;;;;20.90;54.14;101035.57;2833818;81;21102;-89
2022/05/06 10:07:00;;;;;;;7.87;4.00;;;;;;;20.97;55.74;101033.87;2838100;81;20948;-87
2022/05/06 10:11:04;;;;;;;6.42;3.27;;;;;;;21.03;52.46;101032.30;2835100;81;21051;-88
2022/05/06 10:15:11;;;;;;;7.70;3.87;;;;;;;21.09;51.92;101035.14;2833911;81;21054;-88
2022/05/06 10:19:29;;;;;;;4.33;3.92;;;;;;;21.02;55.88;101030.12;2790205;82;21054;-89
2022/05/06 10:23:55;;;;;;;5.72;3.95;;;;;;;21.17;54.30;101027.49;2879447;80;21645;-89
2022/05/06 10:32:55;;;;;;;6.67;3.93;;;;;;;21.06;54.26;101033.31;2804346;83;21628;-89
2022/05/06 10:37:03;;;;;;;5.72;5.12;;;;;;;21.23;52.82;101017.83;2628932;87;21573;-89
2022/05/06 10:41:11;;;;;;;16.23;5.78;;;;;;;21.33;53.42;101019.80;2643672;88;21347;-89
2022/05/06 10:45:30;;;;;;;13.22;4.47;;;;;;;21.22;53.01;101017.00;2619940;89;21110;-89
2022/05/06 10:49:51;;;;;;;4.92;3.67;;;;;;;21.27;54.76;101013.73;2634530;88;21127;-89
2022/05/06 10:53:52;;;;;;;6.47;3.98;;;;;;;21.26;53.13;101008.86;2666595;87;21142;-89
2022/05/06 10:58:03;;;;;;;5.80;4.00;;;;;;;21.35;54.22;101006.94;2670182;88;21088;-89
2022/05/06 11:02:13;;;;;;;6.37;4.58;;;;;;;21.50;54.45;100998.02;2664704;86;21137;-89
2022/05/06 11:06:20;;;;;;;6.40;4.35;;;;;;;21.53;52.93;100994.45;2687095;86;21054;-89
2022/05/06 11:10:25;;;;;;;5.53;4.50;;;;;;;21.46;52.21;100989.44;2794418;82;21043;-89
2022/05/06 11:14:26;;;;;;;5.90;4.03;;;;;;;21.26;51.48;100993.97;2861678;80;21054;-89
2022/05/06 11:18:28;;;;;;;5.53;3.67;;;;;;;21.12;52.21;100987.97;2853018;82;21023;-87
2022/05/06 11:22:33;;;;;;;9.65;4.28;;;;;;;21.15;53.33;100988.96;2839705;82;21054;-89
2022/05/06 11:26:32;;;;;;;5.50;4.00;;;;;;;21.09;52.71;100986.98;2843157;81;21094;-89
2022/05/06 11:30:34;;;;;;;5.53;4.67;;;;;;;21.11;51.60;100979.00;2796691;83;20972;-89
2022/05/06 11:34:37;;;;;;;12.80;4.65;;;;;;;21.12;51.18;100971.74;2923127;79;21092;-89
2022/05/06 11:38:40;;;;;;;10.75;4.78;;;;;;;21.17;51.53;100980.16;2915301;79;21063;-89
2022/05/06 11:42:42;;;;;;;5.78;4.50;;;;;;;21.34;51.37;100972.78;2906738;80;21047;-89
2022/05/06 11:47:38;;;;;;;6.70;3.98;;;;;;;21.37;51.65;100976.97;2865397;79;21067;-88
2022/05/06 11:51:00;;;;;;;6.53;4.30;;;;;;;21.48;54.76;100979.77;2899819;79;21104;-88
2022/05/06 11:55:02;;;;;;;;;;;;;;;21.77;57.36;100980.40;2931435;79;21020;-88
2022/05/06 11:59:05;;;;;;;8.70;4.55;;;;;;;21.83;54.72;100971.56;2906374;79;20115;-89
2022/05/06 12:03:09;;;;;;;8.93;4.78;;;;;;;21.93;52.79;100964.53;2928580;79;21029;-89
2022/05/06 12:07:10;;;;;;;6.90;4.65;;;;;;;22.05;53.84;100965.41;2917784;79;20995;-89
2022/05/06 12:11:12;;;;;;;11.00;6.10;;;;;;;22.01;54.27;100971.73;2911284;79;21606;-87
2022/05/06 12:15:14;;;;;;;5.65;4.70;;;;;;;22.01;53.14;100970.38;2918433;80;20979;-89
2022/05/06 12:19:15;;;;;;;6.28;4.30;;;;;;;22.04;53.64;100971.36;2923559;79;20963;-89
2022/05/06 12:23:26;;;;;;;8.93;4.90;;;;;;;22.20;54.43;100964.06;2920497;80;21038;-88
2022/05/06 12:27:31;;;;;;;5.50;4.17;;;;;;;22.36;54.24;100966.59;2906669;79;21674;-90
2022/05/06 12:31:33;;;;;;;7.03;4.35;;;;;;;22.43;53.71;100965.86;2895092;80;20975;-90
2022/05/06 12:35:56;;;;;;;8.83;4.03;;;;;;;22.46;53.95;100945.15;2845568;82;21518;-89
2022/05/06 12:40:00;;;;;;;4.58;4.12;;;;;;;22.43;51.35;100940.11;2837711;82;21059;-90
2022/05/06 12:44:31;;;;;;;5.85;4.22;;;;;;;22.39;53.45;100936.92;2849450;82;21062;-91
2022/05/06 12:52:46;;;;;;;7.00;4.30;;;;;;;22.36;49.50;100953.56;2919513;80;20990;-90
2022/05/06 12:56:47;;;;;;;11.55;4.85;;;;;;;22.40;50.45;100944.88;2919506;80;21034;-90
2022/05/06 13:00:48;;;;;;;5.25;4.55;;;;;;;22.47;51.73;100941.44;2909835;79;21042;-89
2022/05/06 13:04:49;;;;;;;3.92;3.50;;;;;;;22.59;53.16;100927.70;2924682;79;21020;-91
2022/05/06 13:08:51;;;;;;;4.50;3.42;;;;;;;22.77;52.94;100928.66;2853618;81;21026;-91
2022/05/06 13:12:52;;;;;;;5.90;3.75;;;;;;;22.98;54.07;100929.72;2838801;82;21058;-90
2022/05/06 13:16:53;;;;;;;5.83;4.40;;;;;;;22.80;51.85;100921.50;2812763;82;21039;-89
2022/05/06 13:20:54;;;;;;;4.08;3.67;;;;;;;22.61;50.85;100912.12;2769002;83;21011;-90
2022/05/06 13:24:55;;;;;;;4.40;4.00;;;;;;;22.54;52.41;100911.18;2845789;81;21189;-88
2022/05/06 13:28:57;;;;;;;4.22;3.52;;;;;;;22.63;51.58;100911.91;2785147;81;21030;-92
2022/05/06 13:32:58;;;;;;;11.35;3.85;;;;;;;22.78;49.29;100905.08;2825848;81;20994;-88
2022/05/06 13:37:03;;;;;;;5.47;3.90;;;;;;;22.84;49.49;100900.27;2717023;85;21081;-92
2022/05/06 13:41:02;;;;;;;8.05;4.35;;;;;;;22.96;51.57;100908.20;2861781;81;21121;-92
2022/05/06 13:45:04;;;;;;;5.90;4.17;;;;;;;23.18;52.48;100910.09;2872626;81;21037;-89
2022/05/06 13:49:05;;;;;;;8.10;3.92;;;;;;;23.23;51.18;100900.84;2855284;81;20966;-88
2022/05/06 13:53:08;;;;;;;4.78;3.85;;;;;;;23.26;50.48;100899.13;2856605;81;20955;-88
2022/05/06 14:01:30;;;;;;;4.60;3.70;;;;;;;23.22;49.49;100904.09;2865305;80;21042;-87
2022/05/06 14:05:32;;;;;;;5.37;4.17;;;;;;;23.30;50.41;100908.58;2870583;81;21011;-90
2022/05/06 14:09:36;;;;;;;4.53;3.22;;;;;;;23.23;49.21;100899.48;2848887;81;21085;-89
2022/05/06 14:13:39;;;;;;;6.65;4.22;;;;;;;23.32;48.81;100890.72;2829388;81;20986;-90
2022/05/06 14:17:41;;;;;;;4.30;3.90;;;;;;;23.35;47.83;100890.33;2878767;81;21076;-89
2022/05/06 14:21:43;;;;;;;7.12;4.55;;;;;;;23.40;48.81;100896.03;2839228;80;21113;-92
2022/05/06 14:25:47;;;;;;;10.18;4.00;;;;;;;23.31;49.05;100897.19;2853300;79;21057;-95
2022/05/06 14:29:49;;;;;;;4.92;3.62;;;;;;;22.99;49.15;100889.86;2879177;81;20999;-92
2022/05/06 14:33:51;;;;;;;3.65;3.35;;;;;;;22.80;49.36;100875.92;2869080;80;21050;-93
2022/05/06 14:37:58;;;;;;;4.92;3.30;;;;;;;22.45;49.71;100879.24;2909450;80;20971;-93
2022/05/06 14:41:59;;;;;;;5.62;2.95;;;;;;;22.31;49.31;100881.48;2862230;80;20992;-92
2022/05/06 14:46:01;;;;;;;3.15;2.65;;;;;;;22.15;48.68;100885.22;2905818;80;20981;-92
2022/05/06 14:50:03;;;;;;;4.85;2.90;;;;;;;21.97;46.82;100887.80;2913834;80;21056;-90
2022/05/06 14:54:05;;;;;;;3.87;2.98;;;;;;;21.78;48.94;100883.25;2923806;80;21018;-92
2022/05/06 14:58:07;;;;;;;6.53;3.20;;;;;;;21.66;49.74;100887.46;2919742;80;21004;-92
2022/05/06 15:02:08;;;;;;;3.90;2.77;;;;;;;21.79;50.33;100882.23;2897333;80;21035;-91
2022/05/06 15:06:10;;;;;;;3.35;3.05;;;;;;;22.01;49.15;100885.06;2892516;80;21011;-95
2022/05/06 15:10:12;;;;;;;6.22;3.27;;;;;;;22.16;49.88;100876.06;2911033;79;21048;-92
2022/05/06 15:14:13;;;;;;;3.85;2.42;;;;;;;22.29;48.12;100867.27;2922728;79;21047;-92
2022/05/06 15:22:35;;;;;;;4.47;2.83;;;;;;;22.71;52.38;100863.51;2918606;80;21385;-91
2022/05/06 15:26:36;;;;;;;5.00;3.20;;;;;;;22.88;51.18;100865.44;2862703;81;21423;-91
2022/05/06 15:30:40;;;;;;;8.23;3.80;;;;;;;22.90;48.86;100865.58;2867172;81;21058;-92
2022/05/06 15:34:41;;;;;;;2.95;2.50;;;;;;;22.78;49.39;100867.97;2873825;81;21525;-92
2022/05/06 15:38:42;;;;;;;6.78;3.05;;;;;;;22.67;49.27;100869.32;2878525;81;21027;-89
2022/05/06 15:42:44;;;;;;;7.62;2.70;;;;;;;22.63;50.66;100861.25;2874041;80;21137;-90
2022/05/06 15:46:45;;;;;;;4.20;2.27;;;;;;;22.65;50.38;100846.98;2904793;81;20999;-89
2022/05/06 15:50:46;;;;;;;7.03;2.83;;;;;;;22.64;51.17;100839.89;2883580;81;21026;-88
2022/05/06 15:54:47;;;;;;;5.37;3.20;;;;;;;22.65;50.11;100844.27;2870173;81;21067;-90
2022/05/06 15:58:49;;;;;;;17.20;3.50;;;;;;;22.65;50.32;100854.27;2841745;81;21049;-94
2022/05/06 16:02:50;;;;;;;4.92;2.87;;;;;;;22.60;49.35;100851.30;2887614;81;21031;-93
2022/05/06 16:06:51;;;;;;;5.05;2.47;;;;;;;22.47;50.39;100845.22;2890451;81;21095;-92
2022/05/06 16:10:53;;;;;;;4.22;3.00;;;;;;;22.33;50.10;100835.53;2822719;80;21058;-95
2022/05/06 16:19:13;;;;;;;34.08;4.42;;;;;;;22.17;51.37;100824.91;2895066;81;21039;-94
2022/05/06 16:23:14;;;;;;;4.90;3.17;;;;;;;22.06;51.80;100835.22;2863722;81;21054;-94
2022/05/06 16:27:16;;;;;;;33.90;8.10;;;;;;;21.98;51.88;100835.30;2853264;81;21121;-93
2022/05/06 16:31:17;;;;;;;19.67;5.40;;;;;;;21.92;52.17;100829.30;2836157;82;21058;-94
2022/05/06 16:39:38;;;;;;;4.20;3.40;;;;;;;21.82;53.34;100825.52;2807256;82;21113;-93
2022/05/06 16:43:39;;;;;;;6.72;3.90;;;;;;;21.72;53.45;100827.15;2800871;80;20983;-94
2022/05/06 16:47:43;;;;;;;5.45;3.08;;;;;;;21.57;53.58;100833.89;2839301;80;21129;-93
2022/05/06 16:51:45;;;;;;;3.42;3.12;;;;;;;21.46;54.33;100829.77;2788444;80;21649;-93
2022/05/06 16:55:46;;;;;;;3.90;3.50;;;;;;;21.37;53.73;100834.92;2773184;80;21048;-94
2022/05/06 16:59:47;;;;;;;7.22;4.72;;;;;;;21.28;53.84;100825.21;2748461;82;21063;-94
2022/05/06 17:03:48;;;;;;;6.33;4.45;;;;;;;21.17;54.83;100835.44;2794811;82;21129;-92
2022/05/06 17:07:50;;;;;;;7.17;3.65;;;;;;;21.14;55.64;100841.75;2808773;81;21034;-92
2022/05/06 17:11:52;;;;;;;3.52;3.17;;;;;;;21.08;55.95;100843.30;2795800;82;21061;-94
2022/05/06 17:15:53;;;;;;;5.12;4.22;;;;;;;21.03;56.32;100838.93;2814414;82;21010;-94
2022/05/06 17:19:55;;;;;;;5.45;3.58;;;;;;;20.86;56.40;100837.73;2822701;80;21225;-91
2022/05/06 17:23:57;;;;;;;9.23;4.55;;;;;;;20.75;56.41;100836.75;2830089;82;21024;-93
2022/05/06 17:27:58;;;;;;;8.03;4.35;;;;;;;20.61;56.11;100828.39;2871737;79;21055;-93
2022/05/06 17:32:00;;;;;;;9.03;4.47;;;;;;;20.45;56.58;100836.63;2927550;80;21607;-91
2022/05/06 17:36:02;;;;;;;10.32;4.72;;;;;;;20.40;56.51;100837.14;2913861;79;21558;-93
2022/05/06 17:40:05;;;;;;;3.83;3.52;;;;;;;20.34;56.54;100837.83;2810454;81;21002;-92
2022/05/06 17:44:08;;;;;;;6.00;3.42;;;;;;;20.22;56.88;100834.69;2856096;81;21447;-94
2022/05/06 17:48:09;;;;;;;9.13;4.00;;;;;;;20.13;56.77;100833.87;2764595;82;21054;-92
2022/05/06 17:52:10;;;;;;;8.25;3.22;;;;;;;20.01;57.82;100842.88;2790186;83;21035;-93
2022/05/06 17:56:12;;;;;;;4.90;4.03;;;;;;;19.89;58.18;100849.13;2828601;82;21319;-93
2022/05/06 18:04:35;;;;;;;8.98;4.35;;;;;;;19.69;58.79;100844.66;2855729;79;21164;-93
2022/05/06 18:08:36;;;;;;;5.80;3.72;;;;;;;19.58;58.80;100849.05;2898324;79;21043;-90
2022/05/06 18:12:37;;;;;;;13.45;4.40;;;;;;;19.45;59.21;100846.87;2905668;79;21135;-91
2022/05/06 18:16:39;;;;;;;7.40;5.45;;;;;;;19.32;59.98;100847.41;2910438;80;21033;-89
2022/05/06 18:20:40;;;;;;;5.20;4.12;;;;;;;19.15;61.01;100856.84;2921336;80;21579;-92
2022/05/06 18:24:43;;;;;;;7.62;6.00;;;;;;;18.95;61.62;100865.23;2814129;80;21500;-89
2022/05/06 18:28:44;;;;;;;28.95;8.95;;;;;;;18.76;62.41;100861.50;2916368;80;21644;-93
2022/05/06 18:37:05;;;;;;;11.93;6.80;;;;;;;18.37;63.67;100879.05;2895693;80;21111;-92
2022/05/06 18:41:07;;;;;;;14.20;7.78;;;;;;;18.15;63.95;100879.98;2892046;80;21015;-92
2022/05/06 18:45:10;;;;;;;25.62;7.95;;;;;;;17.93;64.59;100877.33;2902381;80;21010;-92
2022/05/06 18:49:12;;;;;;;45.48;11.68;;;;;;;17.72;65.49;100881.73;2905154;80;21078;-92
2022/05/06 18:53:18;;;;;;;31.33;8.28;;;;;;;17.49;65.67;100881.77;2896913;80;21739;-93
2022/05/06 18:57:23;;;;;;;25.68;9.63;;;;;;;17.29;66.15;100882.44;2881719;80;21576;-93
2022/05/06 19:01:25;;;;;;;19.90;8.50;;;;;;;17.14;66.50;100887.53;2873946;80;20994;-92
2022/05/06 19:05:32;;;;;;;18.15;10.40;;;;;;;16.99;67.11;100892.09;2878571;80;21067;-94
2022/05/06 19:09:45;;;;;;;21.90;13.35;;;;;;;16.83;67.40;100897.27;2868725;80;21047;-95
2022/05/06 19:13:49;;;;;;;15.25;11.90;;;;;;;16.70;67.64;100901.18;2917386;80;21016;-94
2022/05/06 19:18:02;;;;;;;12.33;10.30;;;;;;;16.61;68.07;100906.61;2890467;80;21026;-94
2022/05/06 19:26:40;;;;;;;20.48;9.68;;;;;;;16.31;68.65;100907.25;2847345;81;21133;-94
2022/05/06 19:30:43;;;;;;;15.75;9.98;;;;;;;16.18;68.55;100899.02;2854988;81;21047;-93
2022/05/06 19:34:54;;;;;;;14.25;11.28;;;;;;;16.08;68.66;100908.97;2908288;80;22233;-96
2022/05/06 19:38:57;;;;;;;20.37;11.63;;;;;;;15.96;68.55;100908.30;2902735;79;21324;-85
2022/05/06 19:42:59;;;;;;;18.42;11.25;;;;;;;15.81;68.77;100910.55;2912838;80;21712;-84
2022/05/06 19:47:03;;;;;;;14.75;12.98;;;;;;;15.65;69.83;100917.86;2832424;82;21039;-84
2022/05/06 19:51:03;;;;;;;18.60;12.40;;;;;;;15.43;71.62;100923.88;2887436;81;21031;-85
2022/05/06 19:55:07;;;;;;;14.47;11.03;;;;;;;15.19;72.59;100921.63;2908111;81;21117;-86